sensor_id;sensor_type;location;lat;lon;timestamp;temperature;humidity
73360;DHT22;63092;43.582;19.528;2024-02-26T00:01:43;11.00;99.90
73360;DHT22;63092;43.582;19.528;2024-02-26T00:04:12;10.90;99.90
73360;DHT22;63092;43.582;19.528;2024-02-26T00:06:41;11.00;99.90
73360;DHT22;63092;43.582;19.528;2024-02-26T00:09:07;11.00;99.90
73360;DHT22;63092;43.582;19.528;2024-02-26T00:11:33;10.90;99.90
73360;DHT22;63092;43.582;19.528;2024-02-26T00:13:59;10.90;99.90
73360;DHT22;63092;43.582;19.528;2024-02-26T00:16:25;11.00;99.90
73360;DHT22;63092;43.582;19.528;2024-02-26T00:18:50;11.00;99.90
73360;DHT22;63092;43.582;19.528;2024-02-26T00:21:16;11.00;99.90
73360;DHT22;63092;43.582;19.528;2024-02-26T00:23:43;11.00;99.90
73360;DHT22;63092;43.582;19.528;2024-02-26T00:26:08;10.90;99.90
73360;DHT22;63092;43.582;19.528;2024-02-26T00:28:36;10.90;99.90
73360;DHT22;63092;43.582;19.528;2024-02-26T00:31:02;10.90;99.90
73360;DHT22;63092;43.582;19.528;2024-02-26T00:33:28;10.90;99.90
73360;DHT22;63092;43.582;19.528;2024-02-26T00:35:53;10.90;99.90
73360;DHT22;63092;43.582;19.528;2024-02-26T00:38:19;10.70;99.90
73360;DHT22;63092;43.582;19.528;2024-02-26T00:40:45;10.50;99.90
73360;DHT22;63092;43.582;19.528;2024-02-26T00:43:11;10.40;99.90
73360;DHT22;63092;43.582;19.528;2024-02-26T00:45:37;10.40;99.90
73360;DHT22;63092;43.582;19.528;2024-02-26T00:48:03;10.30;99.90
73360;DHT22;63092;43.582;19.528;2024-02-26T00:50:34;10.20;99.90
73360;DHT22;63092;43.582;19.528;2024-02-26T00:53:00;10.10;99.90
73360;DHT22;63092;43.582;19.528;2024-02-26T00:55:26;10.00;99.90
73360;DHT22;63092;43.582;19.528;2024-02-26T00:57:52;10.00;99.90
73360;DHT22;63092;43.582;19.528;2024-02-26T01:00:18;9.80;99.90
73360;DHT22;63092;43.582;19.528;2024-02-26T01:02:44;9.80;99.90
73360;DHT22;63092;43.582;19.528;2024-02-26T01:05:14;9.90;99.90
73360;DHT22;63092;43.582;19.528;2024-02-26T01:07:41;10.00;99.90
73360;DHT22;63092;43.582;19.528;2024-02-26T01:10:07;10.10;99.90
73360;DHT22;63092;43.582;19.528;2024-02-26T01:12:34;10.10;99.90
73360;DHT22;63092;43.582;19.528;2024-02-26T01:15:00;10.20;99.90
73360;DHT22;63092;43.582;19.528;2024-02-26T01:17:26;10.30;99.90
73360;DHT22;63092;43.582;19.528;2024-02-26T01:19:52;10.30;99.90
73360;DHT22;63092;43.582;19.528;2024-02-26T01:22:19;10.40;99.90
73360;DHT22;63092;43.582;19.528;2024-02-26T01:24:45;10.40;99.90
73360;DHT22;63092;43.582;19.528;2024-02-26T01:27:10;10.30;99.90
73360;DHT22;63092;43.582;19.528;2024-02-26T01:29:36;10.30;99.90
73360;DHT22;63092;43.582;19.528;2024-02-26T01:32:02;10.30;99.90
73360;DHT22;63092;43.582;19.528;2024-02-26T01:34:30;10.30;99.90
73360;DHT22;63092;43.582;19.528;2024-02-26T01:36:56;10.30;99.90
73360;DHT22;63092;43.582;19.528;2024-02-26T01:39:21;10.40;99.90
73360;DHT22;63092;43.582;19.528;2024-02-26T01:41:48;10.30;99.90
73360;DHT22;63092;43.582;19.528;2024-02-26T01:44:13;10.30;99.90
73360;DHT22;63092;43.582;19.528;2024-02-26T01:46:40;10.30;99.90
73360;DHT22;63092;43.582;19.528;2024-02-26T01:49:06;10.30;99.90
73360;DHT22;63092;43.582;19.528;2024-02-26T01:51:33;10.10;99.90
73360;DHT22;63092;43.582;19.528;2024-02-26T01:53:59;9.90;99.90
73360;DHT22;63092;43.582;19.528;2024-02-26T01:56:27;9.80;99.90
73360;DHT22;63092;43.582;19.528;2024-02-26T01:58:56;9.70;99.90
73360;DHT22;63092;43.582;19.528;2024-02-26T02:01:25;9.50;99.90
73360;DHT22;63092;43.582;19.528;2024-02-26T02:03:53;9.40;99.90
73360;DHT22;63092;43.582;19.528;2024-02-26T02:06:19;9.50;99.90
73360;DHT22;63092;43.582;19.528;2024-02-26T02:08:45;9.60;99.90
73360;DHT22;63092;43.582;19.528;2024-02-26T02:11:11;9.70;99.90
73360;DHT22;63092;43.582;19.528;2024-02-26T02:13:38;9.80;99.90
73360;DHT22;63092;43.582;19.528;2024-02-26T02:16:04;9.80;99.90
73360;DHT22;63092;43.582;19.528;2024-02-26T02:18:30;9.80;99.90
73360;DHT22;63092;43.582;19.528;2024-02-26T02:20:55;9.90;99.90
73360;DHT22;63092;43.582;19.528;2024-02-26T02:23:24;9.90;99.90
73360;DHT22;63092;43.582;19.528;2024-02-26T02:25:51;9.90;99.90
73360;DHT22;63092;43.582;19.528;2024-02-26T02:28:17;9.70;99.90
73360;DHT22;63092;43.582;19.528;2024-02-26T02:30:43;9.50;99.90
73360;DHT22;63092;43.582;19.528;2024-02-26T02:33:08;9.30;99.90
73360;DHT22;63092;43.582;19.528;2024-02-26T02:35:34;9.30;99.90
73360;DHT22;63092;43.582;19.528;2024-02-26T02:38:00;9.40;99.90
73360;DHT22;63092;43.582;19.528;2024-02-26T02:40:26;9.40;99.90
73360;DHT22;63092;43.582;19.528;2024-02-26T02:42:52;9.20;99.90
73360;DHT22;63092;43.582;19.528;2024-02-26T02:45:17;9.20;99.90
73360;DHT22;63092;43.582;19.528;2024-02-26T02:47:43;9.10;99.90
73360;DHT22;63092;43.582;19.528;2024-02-26T02:50:09;9.00;99.90
73360;DHT22;63092;43.582;19.528;2024-02-26T02:52:35;9.10;99.90
73360;DHT22;63092;43.582;19.528;2024-02-26T02:55:01;9.00;99.90
73360;DHT22;63092;43.582;19.528;2024-02-26T02:57:27;9.10;99.90
73360;DHT22;63092;43.582;19.528;2024-02-26T02:59:53;9.20;99.90
73360;DHT22;63092;43.582;19.528;2024-02-26T03:02:18;9.20;99.90
73360;DHT22;63092;43.582;19.528;2024-02-26T03:04:44;9.20;99.90
73360;DHT22;63092;43.582;19.528;2024-02-26T03:07:10;9.30;99.90
73360;DHT22;63092;43.582;19.528;2024-02-26T03:09:35;9.40;99.90
73360;DHT22;63092;43.582;19.528;2024-02-26T03:12:01;9.50;99.90
73360;DHT22;63092;43.582;19.528;2024-02-26T03:14:27;9.60;99.90
73360;DHT22;63092;43.582;19.528;2024-02-26T03:16:56;9.60;99.90
73360;DHT22;63092;43.582;19.528;2024-02-26T03:19:21;9.60;99.90
73360;DHT22;63092;43.582;19.528;2024-02-26T03:21:47;9.60;99.90
73360;DHT22;63092;43.582;19.528;2024-02-26T03:24:13;9.60;99.90
73360;DHT22;63092;43.582;19.528;2024-02-26T03:26:40;9.60;99.90
73360;DHT22;63092;43.582;19.528;2024-02-26T03:29:06;9.50;99.90
73360;DHT22;63092;43.582;19.528;2024-02-26T03:31:31;9.50;99.90
73360;DHT22;63092;43.582;19.528;2024-02-26T03:33:57;9.40;99.90
73360;DHT22;63092;43.582;19.528;2024-02-26T03:36:23;9.30;99.90
73360;DHT22;63092;43.582;19.528;2024-02-26T03:38:48;9.20;99.90
73360;DHT22;63092;43.582;19.528;2024-02-26T03:41:14;9.20;99.90
73360;DHT22;63092;43.582;19.528;2024-02-26T03:43:41;9.10;99.90
73360;DHT22;63092;43.582;19.528;2024-02-26T03:46:09;9.10;99.90
73360;DHT22;63092;43.582;19.528;2024-02-26T03:48:42;8.90;99.90
73360;DHT22;63092;43.582;19.528;2024-02-26T03:51:08;8.70;99.90
73360;DHT22;63092;43.582;19.528;2024-02-26T03:53:34;8.60;99.90
73360;DHT22;63092;43.582;19.528;2024-02-26T03:56:04;8.60;99.90
73360;DHT22;63092;43.582;19.528;2024-02-26T03:58:29;8.70;99.90
73360;DHT22;63092;43.582;19.528;2024-02-26T04:00:55;8.80;99.90
73360;DHT22;63092;43.582;19.528;2024-02-26T04:03:21;8.90;99.90
73360;DHT22;63092;43.582;19.528;2024-02-26T04:05:47;8.90;99.90
73360;DHT22;63092;43.582;19.528;2024-02-26T04:08:13;9.00;99.90
73360;DHT22;63092;43.582;19.528;2024-02-26T04:10:39;9.00;99.90
73360;DHT22;63092;43.582;19.528;2024-02-26T04:13:06;9.00;99.90
73360;DHT22;63092;43.582;19.528;2024-02-26T04:15:32;9.00;99.90
73360;DHT22;63092;43.582;19.528;2024-02-26T04:17:58;9.00;99.90
73360;DHT22;63092;43.582;19.528;2024-02-26T04:20:23;9.10;99.90
73360;DHT22;63092;43.582;19.528;2024-02-26T04:22:49;9.10;99.90
73360;DHT22;63092;43.582;19.528;2024-02-26T04:25:15;9.10;99.90
73360;DHT22;63092;43.582;19.528;2024-02-26T04:27:41;9.20;99.90
73360;DHT22;63092;43.582;19.528;2024-02-26T04:30:07;9.10;99.90
73360;DHT22;63092;43.582;19.528;2024-02-26T04:32:34;9.00;99.90
73360;DHT22;63092;43.582;19.528;2024-02-26T04:35:02;9.00;99.90
73360;DHT22;63092;43.582;19.528;2024-02-26T04:37:28;8.80;99.90
73360;DHT22;63092;43.582;19.528;2024-02-26T04:40:00;8.70;99.90
73360;DHT22;63092;43.582;19.528;2024-02-26T04:42:27;8.50;99.90
73360;DHT22;63092;43.582;19.528;2024-02-26T04:44:54;8.40;99.90
73360;DHT22;63092;43.582;19.528;2024-02-26T04:47:19;8.40;99.90
73360;DHT22;63092;43.582;19.528;2024-02-26T04:49:48;8.40;99.90
73360;DHT22;63092;43.582;19.528;2024-02-26T04:52:14;8.40;99.90
73360;DHT22;63092;43.582;19.528;2024-02-26T04:54:40;8.30;99.90
73360;DHT22;63092;43.582;19.528;2024-02-26T04:57:06;8.30;99.90
73360;DHT22;63092;43.582;19.528;2024-02-26T04:59:31;8.30;99.90
73360;DHT22;63092;43.582;19.528;2024-02-26T05:01:57;8.40;99.90
73360;DHT22;63092;43.582;19.528;2024-02-26T05:04:23;8.50;99.90
73360;DHT22;63092;43.582;19.528;2024-02-26T05:06:48;8.60;99.90
73360;DHT22;63092;43.582;19.528;2024-02-26T05:09:14;8.60;99.90
73360;DHT22;63092;43.582;19.528;2024-02-26T05:11:40;8.50;99.90
73360;DHT22;63092;43.582;19.528;2024-02-26T05:14:06;8.40;99.90
73360;DHT22;63092;43.582;19.528;2024-02-26T05:16:32;8.40;99.90
73360;DHT22;63092;43.582;19.528;2024-02-26T05:18:57;8.50;99.90
73360;DHT22;63092;43.582;19.528;2024-02-26T05:21:23;8.50;99.90
73360;DHT22;63092;43.582;19.528;2024-02-26T05:23:49;8.60;99.90
73360;DHT22;63092;43.582;19.528;2024-02-26T05:26:24;8.50;99.90
73360;DHT22;63092;43.582;19.528;2024-02-26T05:28:50;8.50;99.90
73360;DHT22;63092;43.582;19.528;2024-02-26T05:31:16;8.50;99.90
73360;DHT22;63092;43.582;19.528;2024-02-26T05:33:42;8.50;99.90
73360;DHT22;63092;43.582;19.528;2024-02-26T05:36:08;8.60;99.90
73360;DHT22;63092;43.582;19.528;2024-02-26T05:38:34;8.50;99.90
73360;DHT22;63092;43.582;19.528;2024-02-26T05:41:00;8.50;99.90
73360;DHT22;63092;43.582;19.528;2024-02-26T05:43:26;8.50;99.90
73360;DHT22;63092;43.582;19.528;2024-02-26T05:45:52;8.50;99.90
73360;DHT22;63092;43.582;19.528;2024-02-26T05:48:18;8.50;99.90
73360;DHT22;63092;43.582;19.528;2024-02-26T05:50:45;8.50;99.90
73360;DHT22;63092;43.582;19.528;2024-02-26T05:53:11;8.50;99.90
73360;DHT22;63092;43.582;19.528;2024-02-26T05:55:37;8.50;99.90
73360;DHT22;63092;43.582;19.528;2024-02-26T05:58:03;8.60;99.90
73360;DHT22;63092;43.582;19.528;2024-02-26T06:00:29;8.50;99.90
73360;DHT22;63092;43.582;19.528;2024-02-26T06:02:54;8.50;99.90
73360;DHT22;63092;43.582;19.528;2024-02-26T06:05:20;8.60;99.90
73360;DHT22;63092;43.582;19.528;2024-02-26T06:07:46;8.60;99.90
73360;DHT22;63092;43.582;19.528;2024-02-26T06:10:11;8.60;99.90
73360;DHT22;63092;43.582;19.528;2024-02-26T06:12:39;8.70;99.90
73360;DHT22;63092;43.582;19.528;2024-02-26T06:15:06;8.60;99.90
73360;DHT22;63092;43.582;19.528;2024-02-26T06:17:31;8.60;99.90
73360;DHT22;63092;43.582;19.528;2024-02-26T06:19:57;8.70;99.90
73360;DHT22;63092;43.582;19.528;2024-02-26T06:22:25;8.70;99.90
73360;DHT22;63092;43.582;19.528;2024-02-26T06:24:50;8.70;99.90
73360;DHT22;63092;43.582;19.528;2024-02-26T06:27:16;8.60;99.90
73360;DHT22;63092;43.582;19.528;2024-02-26T06:29:42;8.70;99.90
73360;DHT22;63092;43.582;19.528;2024-02-26T06:32:07;8.70;99.90
73360;DHT22;63092;43.582;19.528;2024-02-26T06:34:33;8.70;99.90
73360;DHT22;63092;43.582;19.528;2024-02-26T06:36:59;8.70;99.90
73360;DHT22;63092;43.582;19.528;2024-02-26T06:39:24;8.70;99.90
73360;DHT22;63092;43.582;19.528;2024-02-26T06:41:50;8.70;99.90
73360;DHT22;63092;43.582;19.528;2024-02-26T06:44:16;8.70;99.90
73360;DHT22;63092;43.582;19.528;2024-02-26T06:46:41;8.70;99.90
73360;DHT22;63092;43.582;19.528;2024-02-26T06:49:07;8.80;99.90
73360;DHT22;63092;43.582;19.528;2024-02-26T06:51:33;8.80;99.90
73360;DHT22;63092;43.582;19.528;2024-02-26T06:53:58;8.60;99.90
73360;DHT22;63092;43.582;19.528;2024-02-26T06:56:24;8.50;99.90
73360;DHT22;63092;43.582;19.528;2024-02-26T06:58:50;8.40;99.90
73360;DHT22;63092;43.582;19.528;2024-02-26T07:01:16;8.50;99.90
73360;DHT22;63092;43.582;19.528;2024-02-26T07:03:41;8.60;99.90
73360;DHT22;63092;43.582;19.528;2024-02-26T07:06:08;8.70;99.90
73360;DHT22;63092;43.582;19.528;2024-02-26T07:08:34;8.70;99.90
73360;DHT22;63092;43.582;19.528;2024-02-26T07:11:00;8.70;99.90
73360;DHT22;63092;43.582;19.528;2024-02-26T07:13:25;8.70;99.90
73360;DHT22;63092;43.582;19.528;2024-02-26T07:15:51;8.80;99.90
73360;DHT22;63092;43.582;19.528;2024-02-26T07:18:17;8.90;99.90
73360;DHT22;63092;43.582;19.528;2024-02-26T07:20:43;9.00;99.90
73360;DHT22;63092;43.582;19.528;2024-02-26T07:23:08;9.10;99.90
73360;DHT22;63092;43.582;19.528;2024-02-26T07:25:34;9.10;99.90
73360;DHT22;63092;43.582;19.528;2024-02-26T07:28:00;9.20;99.90
73360;DHT22;63092;43.582;19.528;2024-02-26T07:30:25;9.30;99.90
73360;DHT22;63092;43.582;19.528;2024-02-26T07:32:51;9.30;99.90
73360;DHT22;63092;43.582;19.528;2024-02-26T07:35:17;9.30;99.90
73360;DHT22;63092;43.582;19.528;2024-02-26T07:37:43;9.40;99.90
73360;DHT22;63092;43.582;19.528;2024-02-26T07:40:09;9.50;99.90
73360;DHT22;63092;43.582;19.528;2024-02-26T07:42:35;9.60;99.90
73360;DHT22;63092;43.582;19.528;2024-02-26T07:45:02;9.70;99.90
73360;DHT22;63092;43.582;19.528;2024-02-26T07:47:28;9.80;99.90
73360;DHT22;63092;43.582;19.528;2024-02-26T07:49:53;9.80;99.90
73360;DHT22;63092;43.582;19.528;2024-02-26T07:52:19;10.00;99.90
73360;DHT22;63092;43.582;19.528;2024-02-26T07:54:45;10.10;99.90
73360;DHT22;63092;43.582;19.528;2024-02-26T07:57:10;10.20;99.90
73360;DHT22;63092;43.582;19.528;2024-02-26T07:59:36;10.30;99.90
73360;DHT22;63092;43.582;19.528;2024-02-26T08:02:02;10.30;99.90
73360;DHT22;63092;43.582;19.528;2024-02-26T08:04:29;10.40;99.90
73360;DHT22;63092;43.582;19.528;2024-02-26T08:06:55;10.50;99.90
73360;DHT22;63092;43.582;19.528;2024-02-26T08:09:20;10.70;99.90
73360;DHT22;63092;43.582;19.528;2024-02-26T08:11:46;10.80;99.90
73360;DHT22;63092;43.582;19.528;2024-02-26T08:14:12;11.00;99.90
73360;DHT22;63092;43.582;19.528;2024-02-26T08:16:38;11.10;99.90
73360;DHT22;63092;43.582;19.528;2024-02-26T08:19:04;11.30;99.90
73360;DHT22;63092;43.582;19.528;2024-02-26T08:21:29;11.40;99.90
73360;DHT22;63092;43.582;19.528;2024-02-26T08:23:55;11.60;99.90
73360;DHT22;63092;43.582;19.528;2024-02-26T08:26:21;11.70;99.90
73360;DHT22;63092;43.582;19.528;2024-02-26T08:28:48;11.80;99.90
73360;DHT22;63092;43.582;19.528;2024-02-26T08:31:14;12.00;99.90
73360;DHT22;63092;43.582;19.528;2024-02-26T08:33:40;12.10;99.90
73360;DHT22;63092;43.582;19.528;2024-02-26T08:36:06;12.20;99.90
73360;DHT22;63092;43.582;19.528;2024-02-26T08:38:32;12.30;99.90
73360;DHT22;63092;43.582;19.528;2024-02-26T08:41:01;12.50;99.90
73360;DHT22;63092;43.582;19.528;2024-02-26T08:43:27;12.60;99.90
73360;DHT22;63092;43.582;19.528;2024-02-26T08:45:53;12.70;99.90
73360;DHT22;63092;43.582;19.528;2024-02-26T08:48:19;12.80;99.90
73360;DHT22;63092;43.582;19.528;2024-02-26T08:50:44;12.90;99.90
73360;DHT22;63092;43.582;19.528;2024-02-26T08:53:10;13.00;99.90
73360;DHT22;63092;43.582;19.528;2024-02-26T08:55:36;13.10;99.90
73360;DHT22;63092;43.582;19.528;2024-02-26T08:58:02;13.20;99.90
73360;DHT22;63092;43.582;19.528;2024-02-26T09:00:28;13.30;99.90
73360;DHT22;63092;43.582;19.528;2024-02-26T09:02:53;13.30;99.90
73360;DHT22;63092;43.582;19.528;2024-02-26T09:05:19;13.30;99.90
73360;DHT22;63092;43.582;19.528;2024-02-26T09:07:45;13.40;99.90
73360;DHT22;63092;43.582;19.528;2024-02-26T09:10:12;13.50;99.90
73360;DHT22;63092;43.582;19.528;2024-02-26T09:12:38;13.70;99.40
73360;DHT22;63092;43.582;19.528;2024-02-26T09:15:06;13.80;98.50
73360;DHT22;63092;43.582;19.528;2024-02-26T09:17:33;13.90;98.00
73360;DHT22;63092;43.582;19.528;2024-02-26T09:19:58;14.00;97.00
73360;DHT22;63092;43.582;19.528;2024-02-26T09:22:31;14.10;96.30
73360;DHT22;63092;43.582;19.528;2024-02-26T09:24:57;14.20;96.20
73360;DHT22;63092;43.582;19.528;2024-02-26T09:27:23;14.30;95.80
73360;DHT22;63092;43.582;19.528;2024-02-26T09:29:49;14.40;95.60
73360;DHT22;63092;43.582;19.528;2024-02-26T09:32:14;14.50;94.90
73360;DHT22;63092;43.582;19.528;2024-02-26T09:34:41;14.70;94.70
73360;DHT22;63092;43.582;19.528;2024-02-26T09:37:07;14.70;94.20
73360;DHT22;63092;43.582;19.528;2024-02-26T09:39:32;14.80;93.40
73360;DHT22;63092;43.582;19.528;2024-02-26T09:42:08;15.00;93.70
73360;DHT22;63092;43.582;19.528;2024-02-26T09:44:36;15.00;93.00
73360;DHT22;63092;43.582;19.528;2024-02-26T09:47:05;15.20;92.70
73360;DHT22;63092;43.582;19.528;2024-02-26T09:49:32;15.30;92.10
73360;DHT22;63092;43.582;19.528;2024-02-26T09:51:58;15.40;91.90
73360;DHT22;63092;43.582;19.528;2024-02-26T09:54:25;15.50;91.60
73360;DHT22;63092;43.582;19.528;2024-02-26T09:56:56;15.60;91.10
73360;DHT22;63092;43.582;19.528;2024-02-26T09:59:29;15.70;90.70
73360;DHT22;63092;43.582;19.528;2024-02-26T10:01:56;15.80;90.60
73360;DHT22;63092;43.582;19.528;2024-02-26T10:04:24;15.80;90.10
73360;DHT22;63092;43.582;19.528;2024-02-26T10:06:51;15.90;90.10
73360;DHT22;63092;43.582;19.528;2024-02-26T10:09:18;16.00;89.50
73360;DHT22;63092;43.582;19.528;2024-02-26T10:11:45;16.10;88.70
73360;DHT22;63092;43.582;19.528;2024-02-26T10:14:11;16.20;89.20
73360;DHT22;63092;43.582;19.528;2024-02-26T10:16:37;16.30;88.30
73360;DHT22;63092;43.582;19.528;2024-02-26T10:19:03;16.40;88.10
73360;DHT22;63092;43.582;19.528;2024-02-26T10:21:29;16.50;88.10
73360;DHT22;63092;43.582;19.528;2024-02-26T10:23:55;16.60;87.70
73360;DHT22;63092;43.582;19.528;2024-02-26T10:26:21;16.70;87.70
73360;DHT22;63092;43.582;19.528;2024-02-26T10:28:47;16.70;86.10
73360;DHT22;63092;43.582;19.528;2024-02-26T10:31:14;16.80;85.90
73360;DHT22;63092;43.582;19.528;2024-02-26T10:33:41;16.90;85.40
73360;DHT22;63092;43.582;19.528;2024-02-26T10:36:08;17.00;85.70
73360;DHT22;63092;43.582;19.528;2024-02-26T10:38:35;17.10;84.30
73360;DHT22;63092;43.582;19.528;2024-02-26T10:41:06;17.10;83.90
73360;DHT22;63092;43.582;19.528;2024-02-26T10:43:31;17.10;83.60
73360;DHT22;63092;43.582;19.528;2024-02-26T10:45:57;17.20;83.30
73360;DHT22;63092;43.582;19.528;2024-02-26T10:48:23;17.30;82.80
73360;DHT22;63092;43.582;19.528;2024-02-26T10:50:50;17.30;80.60
73360;DHT22;63092;43.582;19.528;2024-02-26T10:53:22;17.40;81.50
73360;DHT22;63092;43.582;19.528;2024-02-26T10:55:52;17.50;80.20
73360;DHT22;63092;43.582;19.528;2024-02-26T10:58:19;17.50;81.10
73360;DHT22;63092;43.582;19.528;2024-02-26T11:00:46;17.60;81.50
73360;DHT22;63092;43.582;19.528;2024-02-26T11:03:14;17.70;79.20
73360;DHT22;63092;43.582;19.528;2024-02-26T11:05:43;17.80;80.20
73360;DHT22;63092;43.582;19.528;2024-02-26T11:08:11;17.80;78.50
73360;DHT22;63092;43.582;19.528;2024-02-26T11:10:37;18.00;79.00
73360;DHT22;63092;43.582;19.528;2024-02-26T11:13:05;18.00;77.90
73360;DHT22;63092;43.582;19.528;2024-02-26T11:15:32;17.90;76.60
73360;DHT22;63092;43.582;19.528;2024-02-26T11:18:00;18.00;77.70
73360;DHT22;63092;43.582;19.528;2024-02-26T11:20:28;18.10;77.10
73360;DHT22;63092;43.582;19.528;2024-02-26T11:22:55;18.20;77.00
73360;DHT22;63092;43.582;19.528;2024-02-26T11:25:21;18.30;76.00
73360;DHT22;63092;43.582;19.528;2024-02-26T11:27:54;18.30;75.30
73360;DHT22;63092;43.582;19.528;2024-02-26T11:30:21;18.30;74.80
73360;DHT22;63092;43.582;19.528;2024-02-26T11:32:48;18.40;75.50
73360;DHT22;63092;43.582;19.528;2024-02-26T11:35:15;18.40;75.90
73360;DHT22;63092;43.582;19.528;2024-02-26T11:37:52;18.50;76.00
73360;DHT22;63092;43.582;19.528;2024-02-26T11:40:18;18.70;74.90
73360;DHT22;63092;43.582;19.528;2024-02-26T11:42:45;18.70;73.90
73360;DHT22;63092;43.582;19.528;2024-02-26T11:48:38;18.70;73.50
73360;DHT22;63092;43.582;19.528;2024-02-26T11:50:57;18.70;73.80
73360;DHT22;63092;43.582;19.528;2024-02-26T12:04:02;19.20;73.50
73360;DHT22;63092;43.582;19.528;2024-02-26T12:06:29;19.20;72.40
73360;DHT22;63092;43.582;19.528;2024-02-26T12:08:56;19.30;72.90
73360;DHT22;63092;43.582;19.528;2024-02-26T12:11:22;19.40;72.00
73360;DHT22;63092;43.582;19.528;2024-02-26T12:13:52;19.40;71.20
73360;DHT22;63092;43.582;19.528;2024-02-26T12:16:37;19.50;70.80
73360;DHT22;63092;43.582;19.528;2024-02-26T12:19:07;19.50;70.40
73360;DHT22;63092;43.582;19.528;2024-02-26T12:21:35;19.50;70.00
73360;DHT22;63092;43.582;19.528;2024-02-26T12:24:12;19.40;69.70
73360;DHT22;63092;43.582;19.528;2024-02-26T12:26:39;19.30;70.50
73360;DHT22;63092;43.582;19.528;2024-02-26T12:29:05;19.20;70.60
73360;DHT22;63092;43.582;19.528;2024-02-26T12:31:34;19.20;70.70
73360;DHT22;63092;43.582;19.528;2024-02-26T12:34:03;19.10;70.40
73360;DHT22;63092;43.582;19.528;2024-02-26T12:36:29;19.10;70.60
73360;DHT22;63092;43.582;19.528;2024-02-26T12:38:55;19.20;71.30
73360;DHT22;63092;43.582;19.528;2024-02-26T12:41:22;19.30;71.40
73360;DHT22;63092;43.582;19.528;2024-02-26T12:43:48;19.40;71.80
73360;DHT22;63092;43.582;19.528;2024-02-26T12:46:15;19.50;70.50
73360;DHT22;63092;43.582;19.528;2024-02-26T12:48:46;19.50;69.30
73360;DHT22;63092;43.582;19.528;2024-02-26T12:51:12;19.40;69.40
73360;DHT22;63092;43.582;19.528;2024-02-26T12:53:39;19.30;70.00
73360;DHT22;63092;43.582;19.528;2024-02-26T12:56:07;19.40;70.50
73360;DHT22;63092;43.582;19.528;2024-02-26T12:58:34;19.30;69.10
73360;DHT22;63092;43.582;19.528;2024-02-26T13:01:01;19.30;68.50
73360;DHT22;63092;43.582;19.528;2024-02-26T13:03:27;19.30;68.70
73360;DHT22;63092;43.582;19.528;2024-02-26T13:05:53;19.40;69.20
73360;DHT22;63092;43.582;19.528;2024-02-26T13:08:20;19.40;67.70
73360;DHT22;63092;43.582;19.528;2024-02-26T13:10:46;19.40;67.10
73360;DHT22;63092;43.582;19.528;2024-02-26T13:13:15;19.50;66.50
73360;DHT22;63092;43.582;19.528;2024-02-26T13:15:44;19.50;66.00
73360;DHT22;63092;43.582;19.528;2024-02-26T13:18:14;19.60;66.10
73360;DHT22;63092;43.582;19.528;2024-02-26T13:20:40;19.60;66.40
73360;DHT22;63092;43.582;19.528;2024-02-26T13:23:11;19.60;66.30
73360;DHT22;63092;43.582;19.528;2024-02-26T13:25:37;19.70;65.90
73360;DHT22;63092;43.582;19.528;2024-02-26T13:28:17;19.80;64.60
73360;DHT22;63092;43.582;19.528;2024-02-26T13:30:56;19.90;65.30
73360;DHT22;63092;43.582;19.528;2024-02-26T13:33:22;20.00;64.80
73360;DHT22;63092;43.582;19.528;2024-02-26T13:35:48;19.90;64.30
73360;DHT22;63092;43.582;19.528;2024-02-26T13:38:14;19.90;65.40
73360;DHT22;63092;43.582;19.528;2024-02-26T13:40:40;19.90;64.50
73360;DHT22;63092;43.582;19.528;2024-02-26T13:43:07;19.80;64.30
73360;DHT22;63092;43.582;19.528;2024-02-26T13:45:37;19.80;64.90
73360;DHT22;63092;43.582;19.528;2024-02-26T13:48:04;19.80;64.90
73360;DHT22;63092;43.582;19.528;2024-02-26T13:50:30;19.80;64.90
73360;DHT22;63092;43.582;19.528;2024-02-26T13:52:56;19.80;64.60
73360;DHT22;63092;43.582;19.528;2024-02-26T13:55:25;19.80;64.00
73360;DHT22;63092;43.582;19.528;2024-02-26T13:57:54;19.80;64.10
73360;DHT22;63092;43.582;19.528;2024-02-26T14:00:20;19.80;63.80
73360;DHT22;63092;43.582;19.528;2024-02-26T14:02:46;19.70;64.40
73360;DHT22;63092;43.582;19.528;2024-02-26T14:05:12;19.70;64.30
73360;DHT22;63092;43.582;19.528;2024-02-26T14:07:39;19.70;64.10
73360;DHT22;63092;43.582;19.528;2024-02-26T14:10:05;19.60;64.20
73360;DHT22;63092;43.582;19.528;2024-02-26T14:12:31;19.60;64.50
73360;DHT22;63092;43.582;19.528;2024-02-26T14:14:57;19.60;65.00
73360;DHT22;63092;43.582;19.528;2024-02-26T14:17:26;19.60;64.60
73360;DHT22;63092;43.582;19.528;2024-02-26T14:19:52;19.60;64.50
73360;DHT22;63092;43.582;19.528;2024-02-26T14:22:17;19.60;64.70
73360;DHT22;63092;43.582;19.528;2024-02-26T14:24:43;19.50;64.60
73360;DHT22;63092;43.582;19.528;2024-02-26T14:27:11;19.50;64.40
73360;DHT22;63092;43.582;19.528;2024-02-26T14:29:40;19.50;64.80
73360;DHT22;63092;43.582;19.528;2024-02-26T14:32:07;19.50;64.80
73360;DHT22;63092;43.582;19.528;2024-02-26T14:34:33;19.50;65.20
73360;DHT22;63092;43.582;19.528;2024-02-26T14:36:59;19.40;65.40
73360;DHT22;63092;43.582;19.528;2024-02-26T14:39:25;19.40;65.20
73360;DHT22;63092;43.582;19.528;2024-02-26T14:41:51;19.30;66.20
73360;DHT22;63092;43.582;19.528;2024-02-26T14:44:17;19.30;65.80
73360;DHT22;63092;43.582;19.528;2024-02-26T14:46:43;19.30;66.50
73360;DHT22;63092;43.582;19.528;2024-02-26T14:49:08;19.20;67.00
73360;DHT22;63092;43.582;19.528;2024-02-26T14:51:34;19.20;67.50
73360;DHT22;63092;43.582;19.528;2024-02-26T14:54:00;19.20;68.00
73360;DHT22;63092;43.582;19.528;2024-02-26T14:56:27;19.20;68.70
73360;DHT22;63092;43.582;19.528;2024-02-26T14:58:53;19.10;68.90
73360;DHT22;63092;43.582;19.528;2024-02-26T15:01:19;19.10;69.20
73360;DHT22;63092;43.582;19.528;2024-02-26T15:03:45;19.10;69.10
73360;DHT22;63092;43.582;19.528;2024-02-26T15:06:11;19.10;69.40
73360;DHT22;63092;43.582;19.528;2024-02-26T15:08:37;19.10;70.60
73360;DHT22;63092;43.582;19.528;2024-02-26T15:11:03;19.10;69.70
73360;DHT22;63092;43.582;19.528;2024-02-26T15:13:29;19.20;69.60
73360;DHT22;63092;43.582;19.528;2024-02-26T15:15:54;19.20;69.70
73360;DHT22;63092;43.582;19.528;2024-02-26T15:18:20;19.20;70.10
73360;DHT22;63092;43.582;19.528;2024-02-26T15:20:46;19.10;69.90
73360;DHT22;63092;43.582;19.528;2024-02-26T15:23:12;19.10;70.00
73360;DHT22;63092;43.582;19.528;2024-02-26T15:25:38;19.10;70.40
73360;DHT22;63092;43.582;19.528;2024-02-26T15:28:06;19.10;69.80
73360;DHT22;63092;43.582;19.528;2024-02-26T15:30:32;19.10;70.10
73360;DHT22;63092;43.582;19.528;2024-02-26T15:32:59;19.10;69.50